createdAt,value
2018-06-23T00:00:50.444Z,96.60
2018-06-23T00:03:18.495Z,96.60
2018-06-23T00:05:46.541Z,97.60
2018-06-23T00:08:14.595Z,97.40
2018-06-23T00:10:42.657Z,97.50
2018-06-23T00:13:10.693Z,97.70
2018-06-23T00:15:38.736Z,98.10
2018-06-23T00:18:06.784Z,98.10
2018-06-23T00:20:34.828Z,98.20
2018-06-23T00:23:02.884Z,98.60
2018-06-23T00:25:36.261Z,98.10
2018-06-23T00:30:32.236Z,98.00
2018-06-23T00:33:00.277Z,97.50
2018-06-23T00:35:28.317Z,97.10
2018-06-23T00:37:56.369Z,96.80
2018-06-23T00:40:24.416Z,96.40
2018-06-23T00:42:52.453Z,96.60
2018-06-23T00:45:20.505Z,96.60
2018-06-23T00:47:48.537Z,97.20
2018-06-23T00:50:16.816Z,97.20
2018-06-23T00:52:44.861Z,96.90
2018-06-23T00:55:12.901Z,97.00
2018-06-23T00:57:40.944Z,97.20
2018-06-23T01:00:08.984Z,97.40
2018-06-23T01:02:37.024Z,97.70
2018-06-23T01:05:05.201Z,97.40
2018-06-23T01:07:33.237Z,97.50
2018-06-23T01:10:01.284Z,97.50
2018-06-23T01:12:29.336Z,97.00
2018-06-23T01:14:57.376Z,96.90
2018-06-23T01:17:25.432Z,96.90
2018-06-23T01:19:53.469Z,97.30
2018-06-23T01:22:21.521Z,97.30
2018-06-23T01:24:49.649Z,97.80
2018-06-23T01:27:17.698Z,98.40
2018-06-23T01:29:45.741Z,99.00
2018-06-23T01:32:13.787Z,99.40
2018-06-23T01:34:41.838Z,99.60
2018-06-23T01:37:09.889Z,99.30
2018-06-23T01:39:37.920Z,99.20
2018-06-23T01:42:06.094Z,99.50
2018-06-23T01:44:34.132Z,99.20
2018-06-23T01:47:02.181Z,99.60
2018-06-23T01:49:30.224Z,99.60
2018-06-23T01:51:58.260Z,99.40
2018-06-23T01:54:26.305Z,99.70
2018-06-23T01:56:54.363Z,99.80
2018-06-23T01:59:22.413Z,99.80
2018-06-23T02:01:50.453Z,99.90
2018-06-23T02:04:18.501Z,99.70
2018-06-23T02:06:46.540Z,99.80
2018-06-23T02:09:14.603Z,99.90
2018-06-23T02:11:42.640Z,99.90
2018-06-23T02:14:16.165Z,99.90
2018-06-23T02:16:49.624Z,99.90
2018-06-23T02:19:23.052Z,99.90
2018-06-23T02:21:56.521Z,99.90
2018-06-23T02:24:30.013Z,99.90
2018-06-23T02:27:03.569Z,99.90
2018-06-23T02:29:36.917Z,99.90
2018-06-23T02:32:10.377Z,99.90
2018-06-23T02:34:43.968Z,99.90
2018-06-23T02:37:12.061Z,99.60
2018-06-23T02:39:40.133Z,99.70
2018-06-23T02:42:08.197Z,99.90
2018-06-23T02:44:36.265Z,99.70
2018-06-23T02:47:04.404Z,99.60
2018-06-23T02:49:32.473Z,99.80
2018-06-23T02:52:00.534Z,99.90
2018-06-23T02:54:28.592Z,99.90
2018-06-23T02:56:56.641Z,99.90
2018-06-23T02:59:24.693Z,99.90
2018-06-23T03:01:52.755Z,99.90
2018-06-23T03:04:20.804Z,99.90
2018-06-23T03:06:48.850Z,99.90
2018-06-23T03:09:16.897Z,99.90
2018-06-23T03:11:44.949Z,99.90
2018-06-23T03:14:12.988Z,99.90
2018-06-23T03:16:41.025Z,99.90
2018-06-23T03:19:09.089Z,99.90
2018-06-23T03:21:37.141Z,99.90
2018-06-23T03:24:05.208Z,99.90
2018-06-23T03:26:33.284Z,99.90
2018-06-23T03:29:01.340Z,99.90
2018-06-23T03:31:29.389Z,99.90
2018-06-23T03:33:57.424Z,99.90
2018-06-23T03:36:25.468Z,99.90
2018-06-23T03:38:53.514Z,99.90
2018-06-23T03:41:21.557Z,99.90
2018-06-23T03:43:49.668Z,99.90
2018-06-23T03:46:17.653Z,99.90
2018-06-23T03:48:45.992Z,99.90
2018-06-23T03:51:14.040Z,99.90
2018-06-23T03:53:42.077Z,99.90
2018-06-23T03:56:10.154Z,99.90
2018-06-23T03:58:38.193Z,99.90
2018-06-23T04:01:07.605Z,99.90
2018-06-23T04:03:35.988Z,99.90
2018-06-23T04:06:04.061Z,99.90
2018-06-23T04:08:32.568Z,99.90
2018-06-23T04:11:00.613Z,99.90
2018-06-23T04:13:28.648Z,99.90
2018-06-23T04:15:56.736Z,99.90
2018-06-23T04:18:24.764Z,99.90
2018-06-23T04:20:52.816Z,99.90
2018-06-23T04:23:20.874Z,99.90
2018-06-23T04:25:48.925Z,99.90
2018-06-23T04:28:16.964Z,99.90
2018-06-23T04:30:45.037Z,99.90
2018-06-23T04:33:13.080Z,99.90
2018-06-23T04:35:41.129Z,99.90
2018-06-23T04:38:09.227Z,99.90
2018-06-23T04:40:37.280Z,99.90
2018-06-23T04:43:05.344Z,99.90
2018-06-23T04:45:33.424Z,99.90
2018-06-23T04:48:01.498Z,99.90
2018-06-23T04:50:29.812Z,99.90
2018-06-23T04:52:57.916Z,99.90
2018-06-23T04:55:25.972Z,99.90
2018-06-23T04:57:54.153Z,99.90
2018-06-23T05:00:25.955Z,99.90
2018-06-23T05:02:55.158Z,99.90
2018-06-23T05:05:23.541Z,99.90
2018-06-23T05:07:51.606Z,99.90
2018-06-23T05:10:19.664Z,99.90
2018-06-23T05:12:47.745Z,99.90
2018-06-23T05:15:15.804Z,99.90
2018-06-23T05:17:43.905Z,99.90
2018-06-23T05:20:12.021Z,99.90
2018-06-23T05:22:40.277Z,99.90
2018-06-23T05:25:08.341Z,99.90
2018-06-23T05:27:36.437Z,99.80
2018-06-23T05:30:04.788Z,99.30
2018-06-23T05:32:32.873Z,99.60
2018-06-23T05:35:01.064Z,99.40
2018-06-23T05:37:29.141Z,99.50
2018-06-23T05:39:57.237Z,99.20
2018-06-23T05:42:25.305Z,98.60
2018-06-23T05:44:53.397Z,98.90
2018-06-23T05:47:21.684Z,98.60
2018-06-23T05:49:50.113Z,98.20
2018-06-23T05:52:18.198Z,98.30
2018-06-23T05:54:46.260Z,98.20
2018-06-23T05:57:14.355Z,98.30
2018-06-23T05:59:42.909Z,97.50
2018-06-23T06:02:11.553Z,96.90
2018-06-23T06:04:39.638Z,95.70
2018-06-23T06:07:07.740Z,95.00
2018-06-23T06:09:35.764Z,94.80
2018-06-23T06:12:04.005Z,95.10
2018-06-23T06:14:32.169Z,94.40
2018-06-23T06:17:38.450Z,94.60
2018-06-23T06:20:09.917Z,93.80
2018-06-23T06:22:39.228Z,93.10
2018-06-23T06:25:07.933Z,93.60
2018-06-23T06:27:36.216Z,93.30
2018-06-23T06:30:05.484Z,93.20
2018-06-23T06:32:33.552Z,93.10
2018-06-23T06:35:01.637Z,93.10
2018-06-23T06:37:29.708Z,92.70
2018-06-23T06:39:57.769Z,90.60
2018-06-23T06:42:25.825Z,89.30
2018-06-23T06:44:53.893Z,84.70
2018-06-23T06:47:21.961Z,79.10
2018-06-23T06:49:50.021Z,77.30
2018-06-23T06:52:18.081Z,76.00
2018-06-23T06:54:46.948Z,76.90
2018-06-23T06:57:15.079Z,76.90
2018-06-23T06:59:43.077Z,77.60
2018-06-23T07:02:11.145Z,76.90
2018-06-23T07:04:39.204Z,77.00
2018-06-23T07:07:07.272Z,77.70
2018-06-23T07:09:35.338Z,78.30
2018-06-23T07:12:03.409Z,78.40
2018-06-23T07:14:31.472Z,78.30
2018-06-23T07:16:59.521Z,79.90
2018-06-23T07:19:27.575Z,79.10
2018-06-23T07:21:55.636Z,80.10
2018-06-23T07:24:23.695Z,76.20
2018-06-23T07:26:51.799Z,76.50
2018-06-23T07:29:19.816Z,74.40
2018-06-23T07:31:47.897Z,73.50
2018-06-23T07:34:15.994Z,72.90
2018-06-23T07:36:44.013Z,72.10
2018-06-23T07:39:12.218Z,74.00
2018-06-23T07:41:40.249Z,74.00
2018-06-23T07:44:09.007Z,74.50
2018-06-23T07:46:37.102Z,74.60
2018-06-23T07:49:05.268Z,69.60
2018-06-23T07:51:33.553Z,68.60
2018-06-23T07:54:01.609Z,68.50
2018-06-23T07:56:29.645Z,69.00
2018-06-23T07:58:57.701Z,70.90
2018-06-23T08:01:25.748Z,71.30
2018-06-23T08:03:54.188Z,70.70
2018-06-23T08:06:22.228Z,69.80
2018-06-23T08:08:50.268Z,71.10
2018-06-23T08:11:18.309Z,70.90
2018-06-23T08:13:46.347Z,72.00
2018-06-23T08:16:14.389Z,68.10
2018-06-23T08:18:42.433Z,71.50
2018-06-23T08:21:10.473Z,67.00
2018-06-23T08:23:38.537Z,66.80
2018-06-23T08:26:06.601Z,66.30
2018-06-23T08:28:34.925Z,65.70
2018-06-23T08:31:03.328Z,65.40
2018-06-23T08:33:31.372Z,65.30
2018-06-23T08:35:59.421Z,63.90
2018-06-23T08:38:27.468Z,64.10
2018-06-23T08:40:55.521Z,66.50
2018-06-23T08:43:23.556Z,67.20
2018-06-23T08:45:51.609Z,64.80
2018-06-23T08:48:19.701Z,64.40
2018-06-23T08:50:47.752Z,63.00
2018-06-23T08:53:16.090Z,64.60
2018-06-23T08:55:44.141Z,64.20
2018-06-23T08:58:12.176Z,59.10
2018-06-23T09:00:40.230Z,58.20
2018-06-23T09:03:08.269Z,59.00
2018-06-23T09:05:36.349Z,58.10
2018-06-23T09:08:04.388Z,59.10
2018-06-23T09:10:32.440Z,58.70
2018-06-23T09:13:00.484Z,58.70
2018-06-23T09:15:28.518Z,57.50
2018-06-23T09:17:56.560Z,54.80
2018-06-23T09:20:24.608Z,55.30
2018-06-23T09:22:52.648Z,56.10
2018-06-23T09:25:20.708Z,55.60
2018-06-23T09:27:48.734Z,56.80
2018-06-23T09:30:16.788Z,54.00
2018-06-23T09:32:44.825Z,55.00
2018-06-23T09:35:12.869Z,55.00
2018-06-23T09:37:40.949Z,53.40
2018-06-23T09:40:08.997Z,54.80
2018-06-23T09:42:37.065Z,53.50
2018-06-23T09:45:05.137Z,54.60
2018-06-23T09:47:33.200Z,55.40
2018-06-23T09:50:01.265Z,54.50
2018-06-23T09:52:29.336Z,54.60
2018-06-23T09:54:57.566Z,53.20
2018-06-23T09:57:25.629Z,53.60
2018-06-23T09:59:53.681Z,53.40
2018-06-23T10:02:21.797Z,53.70
2018-06-23T10:04:49.808Z,55.60
2018-06-23T10:07:17.917Z,51.50
2018-06-23T10:09:45.933Z,53.70
2018-06-23T10:12:14.180Z,53.40
2018-06-23T10:14:42.242Z,55.40
2018-06-23T10:17:10.306Z,52.40
2018-06-23T10:19:38.357Z,52.20
2018-06-23T10:22:06.424Z,51.90
2018-06-23T10:24:34.500Z,52.20
2018-06-23T10:27:02.546Z,50.60
2018-06-23T10:29:30.596Z,51.20
2018-06-23T10:31:58.665Z,53.50
2018-06-23T10:34:26.729Z,52.00
2018-06-23T10:36:54.804Z,50.60
2018-06-23T10:39:22.840Z,50.20
2018-06-23T10:41:50.876Z,51.80
2018-06-23T10:44:18.920Z,54.50
2018-06-23T10:46:46.973Z,54.80
2018-06-23T10:49:15.046Z,55.20
2018-06-23T10:51:43.096Z,54.70
2018-06-23T10:54:11.134Z,55.20
2018-06-23T10:56:39.196Z,55.20
2018-06-23T10:59:07.234Z,55.90
2018-06-23T11:01:35.270Z,55.10
2018-06-23T11:04:03.321Z,55.20
2018-06-23T11:06:31.364Z,55.50
2018-06-23T11:08:59.410Z,57.70
2018-06-23T11:11:27.448Z,56.80
2018-06-23T11:13:55.488Z,57.90
2018-06-23T11:16:23.516Z,56.00
2018-06-23T11:18:51.556Z,54.90
2018-06-23T11:21:19.606Z,56.20
2018-06-23T11:23:47.700Z,57.10
2018-06-23T11:26:15.740Z,56.50
2018-06-23T11:28:43.784Z,58.70
2018-06-23T11:31:11.833Z,57.00
2018-06-23T11:33:39.879Z,56.00
2018-06-23T11:36:07.927Z,57.20
2018-06-23T11:38:35.972Z,57.90
2018-06-23T11:41:04.017Z,58.00
2018-06-23T11:43:32.157Z,57.50
2018-06-23T11:46:00.188Z,59.00
2018-06-23T11:48:28.240Z,57.50
2018-06-23T11:50:56.276Z,57.20
2018-06-23T11:53:24.345Z,56.70
2018-06-23T11:55:52.385Z,57.50
2018-06-23T11:58:20.432Z,57.30
2018-06-23T12:00:48.469Z,56.90
2018-06-23T12:03:16.567Z,58.20
2018-06-23T12:05:44.572Z,58.10
2018-06-23T12:08:12.612Z,57.00
2018-06-23T12:10:40.661Z,56.60
2018-06-23T12:13:08.704Z,58.00
2018-06-23T12:15:36.757Z,57.20
2018-06-23T12:18:04.792Z,58.60
2018-06-23T12:20:32.848Z,59.10
2018-06-23T12:23:00.884Z,58.40
2018-06-23T12:25:28.933Z,60.60
2018-06-23T12:27:57.010Z,59.40
2018-06-23T12:30:25.120Z,58.10
2018-06-23T12:32:53.089Z,57.60
2018-06-23T12:35:21.145Z,57.80
2018-06-23T12:37:49.192Z,57.80
2018-06-23T12:40:17.237Z,59.90
2018-06-23T12:42:45.289Z,59.10
2018-06-23T12:45:13.324Z,57.90
2018-06-23T12:47:41.364Z,57.20
2018-06-23T12:50:09.442Z,58.80
2018-06-23T12:52:37.461Z,57.30
2018-06-23T12:55:05.497Z,58.60
2018-06-23T12:57:33.597Z,58.00
2018-06-23T13:00:01.649Z,59.20
2018-06-23T13:02:29.699Z,59.20
2018-06-23T13:04:57.763Z,60.00
2018-06-23T13:07:25.797Z,61.50
2018-06-23T13:09:53.849Z,60.80
2018-06-23T13:12:21.901Z,61.50
2018-06-23T13:14:49.933Z,61.70
2018-06-23T13:17:18.068Z,60.40
2018-06-23T13:19:46.108Z,60.20
2018-06-23T13:22:14.185Z,61.60
2018-06-23T13:24:42.216Z,59.10
2018-06-23T13:27:10.301Z,59.20
2018-06-23T13:29:38.344Z,57.40
2018-06-23T13:32:06.431Z,57.10
2018-06-23T13:34:34.495Z,57.20
2018-06-23T13:37:03.064Z,57.60
2018-06-23T13:39:31.211Z,56.70
2018-06-23T13:41:59.245Z,58.10
2018-06-23T13:44:27.313Z,58.30
2018-06-23T13:46:55.372Z,58.90
2018-06-23T13:49:23.469Z,58.30
2018-06-23T13:51:51.538Z,58.10
2018-06-23T13:54:19.609Z,57.20
2018-06-23T13:56:47.668Z,58.10
2018-06-23T13:59:15.737Z,57.70
2018-06-23T14:01:43.821Z,58.50
2018-06-23T14:04:11.899Z,57.10
2018-06-23T14:06:39.971Z,58.80
2018-06-23T14:09:09.397Z,58.80
2018-06-23T14:11:37.526Z,58.30
2018-06-23T14:14:05.616Z,59.20
2018-06-23T14:16:33.837Z,58.40
2018-06-23T14:19:01.908Z,58.70
2018-06-23T14:21:29.985Z,58.80
2018-06-23T14:23:58.104Z,59.80
2018-06-23T14:26:26.173Z,60.70
2018-06-23T14:28:54.289Z,61.00
2018-06-23T14:31:22.434Z,61.60
2018-06-23T14:33:50.433Z,59.20
2018-06-23T14:36:18.492Z,60.40
2018-06-23T14:38:46.540Z,60.50
2018-06-23T14:41:14.786Z,60.90
2018-06-23T14:43:42.886Z,59.80
2018-06-23T14:46:10.953Z,59.70
2018-06-23T14:48:38.993Z,58.70
2018-06-23T14:51:07.061Z,58.90
2018-06-23T14:53:35.095Z,57.70
2018-06-23T14:56:03.148Z,59.00
2018-06-23T14:58:31.187Z,58.90
2018-06-23T15:00:59.248Z,58.70
2018-06-23T15:03:27.308Z,58.70
2018-06-23T15:08:34.870Z,60.40
2018-06-23T15:11:14.452Z,60.40
2018-06-23T15:13:42.488Z,60.20
2018-06-23T15:16:10.548Z,61.10
2018-06-23T15:18:38.608Z,60.10
2018-06-23T15:21:06.654Z,59.90
2018-06-23T15:23:34.720Z,59.80
2018-06-23T15:26:02.768Z,59.80
2018-06-23T15:28:30.804Z,59.60
2018-06-23T15:30:58.844Z,60.70
2018-06-23T15:33:26.885Z,61.50
2018-06-23T15:35:54.937Z,62.40
2018-06-23T15:38:23.345Z,62.60
2018-06-23T15:40:51.401Z,63.30
2018-06-23T15:43:19.429Z,64.30
2018-06-23T15:45:47.480Z,64.00
2018-06-23T15:48:15.521Z,62.70
2018-06-23T15:50:43.573Z,63.30
2018-06-23T15:53:11.613Z,62.30
2018-06-23T15:55:39.776Z,63.40
2018-06-23T15:58:07.825Z,63.30
2018-06-23T16:00:35.877Z,64.60
2018-06-23T16:03:03.912Z,64.20
2018-06-23T16:05:31.952Z,63.70
2018-06-23T16:08:00.000Z,63.50
2018-06-23T16:10:28.041Z,63.00
2018-06-23T16:12:56.088Z,63.60
2018-06-23T16:15:24.140Z,63.90
2018-06-23T16:17:52.217Z,63.60
2018-06-23T16:20:20.313Z,62.90
2018-06-23T16:22:48.605Z,63.50
2018-06-23T16:25:18.290Z,63.40
2018-06-23T16:27:46.332Z,63.40
2018-06-23T16:30:14.765Z,64.10
2018-06-23T16:32:42.814Z,63.60
2018-06-23T16:35:11.155Z,64.00
2018-06-23T16:37:38.949Z,63.80
2018-06-23T16:40:07.045Z,64.70
2018-06-23T16:42:35.117Z,63.00
2018-06-23T16:45:03.185Z,63.60
2018-06-23T16:47:31.258Z,64.80
2018-06-23T16:49:59.314Z,64.90
2018-06-23T16:52:27.414Z,63.90
2018-06-23T16:54:55.456Z,65.30
2018-06-23T16:57:23.525Z,65.20
2018-06-23T16:59:51.584Z,65.50
2018-06-23T17:02:19.660Z,66.70
2018-06-23T17:04:47.721Z,67.50
2018-06-23T17:07:15.822Z,67.90
2018-06-23T17:12:12.354Z,68.20
2018-06-23T17:14:40.452Z,68.30
2018-06-23T17:17:08.615Z,67.60
2018-06-23T17:19:36.770Z,68.60
2018-06-23T17:22:04.753Z,68.20
2018-06-23T17:24:32.808Z,68.10
2018-06-23T17:27:00.909Z,68.50
2018-06-23T17:29:28.917Z,69.50
2018-06-23T17:31:56.973Z,68.70
2018-06-23T17:34:25.211Z,69.10
2018-06-23T17:36:53.418Z,69.50
2018-06-23T17:39:21.470Z,70.70
2018-06-23T17:41:49.535Z,70.50
2018-06-23T17:44:17.556Z,70.50
2018-06-23T17:46:45.601Z,71.50
2018-06-23T17:49:13.649Z,70.90
2018-06-23T17:51:41.685Z,71.00
2018-06-23T17:54:09.732Z,70.90
2018-06-23T17:56:37.773Z,71.40
2018-06-23T17:59:05.952Z,72.00
2018-06-23T18:01:34.186Z,71.10
2018-06-23T18:04:02.849Z,71.20
2018-06-23T18:06:30.944Z,72.40
2018-06-23T18:08:58.947Z,71.80
2018-06-23T18:11:27.205Z,71.60
2018-06-23T18:13:55.240Z,72.00
2018-06-23T18:16:23.284Z,72.00
2018-06-23T18:18:51.316Z,72.40
2018-06-23T18:21:19.392Z,72.50
2018-06-23T18:23:47.412Z,72.20
2018-06-23T18:26:15.453Z,72.00
2018-06-23T18:28:43.492Z,72.40
2018-06-23T18:31:11.524Z,72.90
2018-06-23T18:33:39.572Z,73.10
2018-06-23T18:36:07.629Z,73.20
2018-06-23T18:38:35.684Z,73.40
2018-06-23T18:41:03.786Z,74.50
2018-06-23T18:43:31.837Z,74.20
2018-06-23T18:45:59.896Z,74.50
2018-06-23T18:48:27.937Z,74.60
2018-06-23T18:50:56.009Z,75.20
2018-06-23T18:53:24.046Z,75.40
2018-06-23T18:55:52.104Z,75.60
2018-06-23T18:58:20.148Z,76.00
2018-06-23T19:00:48.194Z,76.40
2018-06-23T19:03:16.252Z,77.10
2018-06-23T19:05:44.385Z,77.50
2018-06-23T19:08:12.431Z,77.40
2018-06-23T19:10:40.488Z,78.00
2018-06-23T19:13:15.390Z,78.20
2018-06-23T19:15:43.431Z,78.40
2018-06-23T19:18:11.462Z,79.00
2018-06-23T19:20:39.501Z,79.80
2018-06-23T19:23:07.652Z,79.30
2018-06-23T19:25:35.704Z,79.80
2018-06-23T19:28:03.758Z,80.10
2018-06-23T19:30:31.812Z,79.40
2018-06-23T19:33:00.034Z,79.90
2018-06-23T19:35:28.216Z,80.10
2018-06-23T19:37:56.269Z,80.50
2018-06-23T19:40:24.330Z,80.60
2018-06-23T19:42:52.368Z,81.00
2018-06-23T19:45:20.441Z,81.00
2018-06-23T19:47:48.476Z,81.50
2018-06-23T19:50:16.519Z,81.70
2018-06-23T19:52:44.707Z,82.10
2018-06-23T19:55:12.748Z,82.60
2018-06-23T19:57:40.796Z,83.30
2018-06-23T20:00:08.997Z,83.20
2018-06-23T20:02:37.062Z,83.50
2018-06-23T20:05:05.136Z,83.60
2018-06-23T20:07:33.532Z,84.10
2018-06-23T20:10:01.573Z,84.40
2018-06-23T20:12:29.679Z,84.60
2018-06-23T20:17:25.597Z,84.90
2018-06-23T20:19:53.858Z,85.30
2018-06-23T20:22:21.957Z,85.60
2018-06-23T20:24:50.018Z,85.90
2018-06-23T20:27:18.118Z,85.90
2018-06-23T20:29:46.169Z,85.90
2018-06-23T20:32:14.241Z,86.30
2018-06-23T20:34:42.298Z,86.70
2018-06-23T20:37:10.342Z,86.60
2018-06-23T20:39:38.414Z,86.90
2018-06-23T20:42:06.469Z,87.30
2018-06-23T20:44:34.536Z,87.40
2018-06-23T20:47:02.582Z,87.90
2018-06-23T20:49:30.645Z,88.10
2018-06-23T20:51:58.743Z,88.60
2018-06-23T20:54:26.827Z,88.60
2018-06-23T20:56:54.859Z,88.80
2018-06-23T20:59:22.928Z,89.10
2018-06-23T21:01:51.168Z,88.70
2018-06-23T21:04:19.208Z,88.80
2018-06-23T21:06:47.249Z,89.40
2018-06-23T21:09:15.297Z,89.30
2018-06-23T21:11:43.352Z,89.90
2018-06-23T21:14:11.405Z,90.00
2018-06-23T21:16:39.437Z,90.20
2018-06-23T21:21:35.470Z,90.80
2018-06-23T21:24:03.496Z,90.90
2018-06-23T21:26:31.544Z,91.00
2018-06-23T21:28:59.587Z,91.40
2018-06-23T21:31:27.621Z,91.40
2018-06-23T21:33:55.673Z,91.60
2018-06-23T21:36:23.709Z,91.60
2018-06-23T21:38:51.789Z,91.90
2018-06-23T21:41:19.860Z,92.20
2018-06-23T21:43:47.913Z,92.40
2018-06-23T21:46:15.968Z,92.30
2018-06-23T21:48:44.020Z,92.60
2018-06-23T21:51:12.080Z,92.70
2018-06-23T21:53:40.137Z,92.90
2018-06-23T21:56:08.200Z,92.90
2018-06-23T21:58:36.248Z,93.00
2018-06-23T22:01:04.317Z,93.10
2018-06-23T22:03:32.364Z,93.00
2018-06-23T22:06:00.436Z,93.10
2018-06-23T22:08:28.488Z,93.40
2018-06-23T22:10:56.560Z,93.20
2018-06-23T22:13:24.615Z,93.40
2018-06-23T22:15:52.673Z,93.60
2018-06-23T22:18:20.738Z,93.80
2018-06-23T22:20:48.792Z,94.40
2018-06-23T22:23:16.852Z,94.40
2018-06-23T22:25:44.912Z,94.20
2018-06-23T22:28:12.956Z,94.50
2018-06-23T22:30:41.016Z,94.50
2018-06-23T22:33:09.152Z,94.90
2018-06-23T22:35:37.222Z,95.10
2018-06-23T22:38:05.313Z,95.10
2018-06-23T22:40:33.352Z,95.30
2018-06-23T22:43:01.393Z,95.40
2018-06-23T22:45:29.440Z,95.40
2018-06-23T22:47:57.477Z,95.50
2018-06-23T22:50:25.509Z,95.40
2018-06-23T22:52:53.561Z,95.20
2018-06-23T22:55:21.597Z,95.90
2018-06-23T22:57:49.640Z,95.70
2018-06-23T23:00:17.680Z,95.50
2018-06-23T23:02:45.720Z,96.20
2018-06-23T23:05:13.755Z,96.50
2018-06-23T23:07:41.817Z,96.80
2018-06-23T23:10:10.768Z,97.10
2018-06-23T23:12:38.974Z,97.70
2018-06-23T23:15:07.057Z,98.00
2018-06-23T23:17:35.096Z,98.20
2018-06-23T23:20:03.149Z,98.90
2018-06-23T23:22:31.506Z,98.90
2018-06-23T23:24:59.548Z,99.10
2018-06-23T23:29:55.553Z,99.40
2018-06-23T23:32:23.605Z,99.40
2018-06-23T23:34:51.821Z,99.40
2018-06-23T23:37:20.017Z,99.30
2018-06-23T23:39:48.401Z,99.00
2018-06-23T23:42:16.449Z,99.00
2018-06-23T23:47:12.335Z,98.60
2018-06-23T23:49:40.365Z,98.30
2018-06-23T23:52:08.437Z,98.30
2018-06-23T23:54:36.469Z,98.60
2018-06-23T23:57:04.515Z,98.70
2018-06-23T23:59:32.567Z,98.90
